Arlington, Mississippi
Current Conditions -  °F | °C
As of 11:53 AM on Monday 22 Dec 2014 (Local Time) from KMCB Reporting Station
Haze Haze  
Wind Chill: 63°   Ceiling: 400
Heat Index: 63°   Visibility: 5mi
Dew Point: 61°   Wind: 6mph
Humidity: 93%   Direction: 180°S
Pressure: 29.76"   Gusts: NA
Location:  31.4439°N, 90.4692°W
Report Text: KMCB 221753Z AUTO 18005KT 5SM BR OVC004 17/16 A2976 RMK AO2 SLP076 T01720161 10172 20122 58022
Loading
Personal Weather Stations






























Interactive Weather Map New forecast layout! Learn more

10-Day Weather Forecast

Advertisements
Track Severe Weather on mobile